Thunder radar more information blitzortung!


Radar de pluja more information rain snow radar


Visita la nostra xarxa de llocs de meteo:

Template documentation
and downloads

And another site



No particular awareness of the weather is required.    There are no Weather-warnings

Pagina Historial Weather Underground text

Diari Resum Juny 22, 2017 Unitats:  Imperial    Mètric   Tant
« Previous Dia
SegĂźent Dia »
Diari Setmana Mensual Anual Personalitzada
  Maxima: Minima: Media:
Temperatura: 96.6 °F 72.1 °F 85.6 °F
Punt de rosada: 65.3 °F 53.1 °F 57.7 °F
Humitat: 62 % 30 % 40 %
Wind Speed: 13.8 mph 0 mph 5.7 mph
RĂ fegues de vent: 13.8 mph - -
Vent:- - SW
Pression baro: 30.1 in 30 in -
Precipitacions: 0 in    
Historical Graphs
 
 
Dades de taula per Juny 22, 2017
Temps Temperatura Punt de rosada Pression baro Vent Wind Speed RĂ fegues de vent Humitat Rainfall Rate (Hourly)
00:01 75.4 °F 58.6 °F 30 in West 3.5 mph 3.5 mph 56 % 0 in
04:55 81.3 °F 64 °F 30 in SW 1 mph 4 mph 56 % 0 in
05:05 82.6 °F 64.8 °F 30 in Calm   3 mph 55 % 0 in
05:15 84.2 °F 65.1 °F 30 in SSW 1 mph 2 mph 53 % 0 in
05:25 84.7 °F 64.6 °F 30 in SW 1 mph 2 mph 51 % 0 in
05:35 84.6 °F 64.4 °F 30 in SW 2 mph 3 mph 51 % 0 in
10:38 84.7 °F 63.5 °F 30 in SW 4.6 mph 4.6 mph 49 % 0 in
10:43 85.8 °F 64.6 °F 30 in SSW 3.5 mph 3.5 mph 49 % 0 in
10:48 86.2 °F 64.2 °F 30 in WSW 3.5 mph 3.5 mph 48 % 0 in
10:53 86.7 °F 64.8 °F 30 in SW 4.6 mph 4.6 mph 48 % 0 in
10:58 87.3 °F 65.1 °F 30 in SSW 3.5 mph 3.5 mph 48 % 0 in
11:03 87.8 °F 64.4 °F 30 in SSE 4.3 mph 4.3 mph 46 % 0 in
11:08 87.8 °F 64.4 °F 30 in WSW 3.5 mph 3.5 mph 46 % 0 in
11:13 87.8 °F 63.9 °F 30 in SSE 4.6 mph 4.6 mph 45 % 0 in
11:18 89.4 °F 64.6 °F 30 in SSW 3.5 mph 3.5 mph 44 % 0 in
11:23 90.1 °F 64.6 °F 30 in WSW 4.6 mph 4.6 mph 43 % 0 in
11:28 90.9 °F 65.3 °F 30 in West 2.3 mph 2.3 mph 43 % 0 in
11:33 91.4 °F 64.4 °F 30 in SW 5.4 mph 5.4 mph 41 % 0 in
11:38 91.8 °F 64.8 °F 30 in SW 2.3 mph 2.3 mph 41 % 0 in
11:43 91.4 °F 63.7 °F 30 in SSW 2.6 mph 2.6 mph 40 % 0 in
11:48 91.8 °F 64 °F 30 in West 3.5 mph 3.5 mph 40 % 0 in
11:53 92.3 °F 63.9 °F 30 in SSW 4.7 mph 4.7 mph 39 % 0 in
11:58 92.3 °F 63 °F 30 in NW 4.6 mph 4.6 mph 38 % 0 in
12:03 92.7 °F 63.3 °F 30 in West 5.8 mph 5.8 mph 38 % 0 in
12:08 93.2 °F 63.1 °F 30 in WSW 1.4 mph 1.4 mph 37 % 0 in
12:13 93.7 °F 63.5 °F 30 in WSW 4.6 mph 4.6 mph 37 % 0 in
12:18 93.9 °F 63 °F 30 in WSW 3.5 mph 3.5 mph 36 % 0 in
12:20 94.1 °F 63.1 °F 30 in SW 3.5 mph 3.5 mph 36 % 0 in
12:25 95 °F 62.2 °F 30 in WSW 4.6 mph 4.6 mph 34 % 0 in
12:30 95.7 °F 63 °F 30 in WSW 3.5 mph 3.6 mph 34 % 0 in
12:35 94.3 °F 60.8 °F 30 in SE 5.8 mph 5.8 mph 33 % 0 in
12:40 94.8 °F 61.2 °F 30 in SW 4.6 mph 4.6 mph 33 % 0 in
12:45 94.8 °F 60.4 °F 30 in SW 5.9 mph 5.9 mph 32 % 0 in
12:50 95.4 °F 60.8 °F 30 in SW 4.6 mph 4.6 mph 32 % 0 in
12:55 95.5 °F 60.1 °F 30 in SW 4.7 mph 4.7 mph 31 % 0 in
13:00 95.7 °F 60.3 °F 30 in WSW 3.6 mph 3.6 mph 31 % 0 in
13:05 95.7 °F 60.3 °F 30 in SW 5.8 mph 5.8 mph 31 % 0 in
13:10 95.5 °F 60.1 °F 30 in WSW 8.1 mph 8.1 mph 31 % 0 in
13:15 96.6 °F 61.9 °F 30 in South 4.6 mph 4.6 mph 32 % 0 in
13:20 96.6 °F 61 °F 30 in West 8.1 mph 8.1 mph 31 % 0 in
13:25 95.9 °F 60.4 °F 30 in WSW 8.1 mph 8.1 mph 31 % 0 in
13:30 95.9 °F 61.3 °F 30 in SW 5.8 mph 5.8 mph 32 % 0 in
13:35 96.4 °F 61 °F 30 in SW 7.4 mph 7.4 mph 31 % 0 in
13:40 96.3 °F 61.5 °F 30 in SSW 6.9 mph 6.9 mph 32 % 0 in
13:45 95.7 °F 59.4 °F 30 in South 10.4 mph 10.4 mph 30 % 0 in
13:50 95.4 °F 59.9 °F 30 in WSW 8.1 mph 8.1 mph 31 % 0 in
13:51 95.2 °F 59.7 °F 30 in SW 9.8 mph 9.8 mph 31 % 0 in
13:56 95.2 °F 59.7 °F 30 in SW 11.5 mph 11.5 mph 31 % 0 in
14:01 95.2 °F 60.6 °F 30 in WSW 8.1 mph 8.1 mph 32 % 0 in
14:06 94.8 °F 61.2 °F 30 in SSW 10.7 mph 10.7 mph 33 % 0 in
14:11 94.8 °F 61.2 °F 30 in WSW 5.8 mph 5.8 mph 33 % 0 in
14:16 95.2 °F 60.6 °F 30 in SSW 12.7 mph 12.7 mph 32 % 0 in
14:21 93.9 °F 60.4 °F 30 in SW 12.7 mph 12.7 mph 33 % 0 in
14:26 93.7 °F 60.3 °F 30 in SW 13.8 mph 13.8 mph 33 % 0 in
14:31 94.1 °F 60.6 °F 30 in West 8.1 mph 8.1 mph 33 % 0 in
14:36 93.9 °F 60.4 °F 30 in SSE 6.9 mph 6.9 mph 33 % 0 in
14:41 94.1 °F 59.7 °F 30 in SW 10.4 mph 10.4 mph 32 % 0 in
14:46 94.1 °F 59.7 °F 30 in WSW 9.2 mph 9.2 mph 32 % 0 in
14:51 94.1 °F 59.7 °F 30 in SW 12.7 mph 12.7 mph 32 % 0 in
14:56 93.2 °F 59 °F 30 in SW 11.5 mph 11.5 mph 32 % 0 in
15:01 93.4 °F 59.2 °F 30 in West 9.8 mph 9.8 mph 32 % 0 in
15:06 93.6 °F 59.4 °F 30 in SW 8.1 mph 8.1 mph 32 % 0 in
15:11 93.4 °F 59.2 °F 30 in WSW 10.4 mph 10.4 mph 32 % 0 in
15:16 93.6 °F 59.4 °F 30 in SSW 10.4 mph 10.4 mph 32 % 0 in
15:21 93 °F 58.8 °F 30 in WSW 11.5 mph 11.5 mph 32 % 0 in
15:26 93.4 °F 58.3 °F 30 in SW 10.5 mph 10.5 mph 31 % 0 in
15:31 93.6 °F 58.5 °F 30 in SSW 8.1 mph 8.1 mph 31 % 0 in
15:36 94.1 °F 57.9 °F 30 in South 6.9 mph 6.9 mph 30 % 0 in
15:41 93 °F 57 °F 30 in WSW 10.4 mph 10.4 mph 30 % 0 in
15:46 93.9 °F 57.7 °F 30 in WSW 8.1 mph 8.1 mph 30 % 0 in
15:51 93.4 °F 57.4 °F 30 in SSW 13 mph 13 mph 30 % 0 in
15:56 93.4 °F 57.4 °F 30 in SW 6.9 mph 6.9 mph 30 % 0 in
16:01 92.8 °F 56.8 °F 30 in SSW 10.4 mph 10.4 mph 30 % 0 in
16:06 92.5 °F 57.4 °F 30 in WSW 9.2 mph 9.2 mph 31 % 0 in
16:11 92.1 °F 57 °F 30 in WSW 10.4 mph 10.4 mph 31 % 0 in
16:16 92.3 °F 57.4 °F 30 in SW 13.8 mph 13.8 mph 31 % 0 in
16:21 92.1 °F 57 °F 30 in South 10.4 mph 10.4 mph 31 % 0 in
16:26 91.8 °F 55.9 °F 30 in SW 13.8 mph 13.8 mph 30 % 0 in
16:31 91.2 °F 55.6 °F 30 in South 12.7 mph 12.7 mph 30 % 0 in
16:36 91 °F 56.1 °F 30 in SSW 6 mph 6 mph 31 % 0 in
16:41 90.3 °F 55.6 °F 30 in SW 13.8 mph 13.8 mph 31 % 0 in
16:46 91.2 °F 56.5 °F 30 in SW 9.2 mph 9.2 mph 31 % 0 in
16:51 91 °F 56.1 °F 30 in West 10.2 mph 10.2 mph 31 % 0 in
16:56 90.9 °F 55.9 °F 30 in SW 9.2 mph 9.2 mph 31 % 0 in
17:01 90.1 °F 55.4 °F 30 in South 13.8 mph 13.8 mph 31 % 0 in
17:06 90.1 °F 55.4 °F 30 in SSW 12.7 mph 12.7 mph 31 % 0 in
17:11 90.1 °F 55.4 °F 30 in SSW 8.1 mph 8.1 mph 31 % 0 in
17:16 89.6 °F 55 °F 30 in SW 8.1 mph 8.1 mph 31 % 0 in
17:21 89.2 °F 53.8 °F 30 in SW 10.4 mph 10.4 mph 30 % 0 in
17:26 89.2 °F 54.7 °F 30 in SW 10.4 mph 10.4 mph 31 % 0 in
17:31 89.1 °F 53.6 °F 30 in WSW 5.9 mph 5.9 mph 30 % 0 in
17:36 89.4 °F 54.9 °F 30 in WSW 13.2 mph 13.2 mph 31 % 0 in
17:41 89.2 °F 54.7 °F 30 in SW 12.7 mph 12.7 mph 31 % 0 in
17:46 88.3 °F 53.1 °F 30 in SW 11.5 mph 11.5 mph 30 % 0 in
17:51 88.7 °F 53.2 °F 30 in South 9.2 mph 9.2 mph 30 % 0 in
17:56 88.9 °F 54.3 °F 30 in SW 8.1 mph 8.1 mph 31 % 0 in
18:01 88.7 °F 54.1 °F 30 in SSW 9.2 mph 9.2 mph 31 % 0 in
18:06 88.9 °F 54.3 °F 30 in WNW 8.1 mph 8.1 mph 31 % 0 in
18:11 88.9 °F 54.3 °F 30 in South 6.9 mph 6.9 mph 31 % 0 in
18:16 88.3 °F 54.7 °F 30 in WSW 8.1 mph 8.1 mph 32 % 0 in
18:21 88.3 °F 54.7 °F 30 in SW 5.8 mph 5.8 mph 32 % 0 in
18:26 88.3 °F 55.6 °F 30 in SSW 8.1 mph 8.1 mph 33 % 0 in
18:31 88.3 °F 55.6 °F 30 in South 5.8 mph 5.8 mph 33 % 0 in
18:36 87.8 °F 55 °F 30 in SW 5.8 mph 5.8 mph 33 % 0 in
18:41 87.8 °F 55 °F 30 in SW 11.5 mph 11.5 mph 33 % 0 in
18:46 87.8 °F 55.9 °F 30 in NW 4.6 mph 4.6 mph 34 % 0 in
18:51 87.6 °F 55 °F 30 in WSW 3.8 mph 3.8 mph 33 % 0 in
18:56 87.3 °F 54.7 °F 30 in West 9.2 mph 9.2 mph 33 % 0 in
19:01 87.4 °F 54.9 °F 30 in South 7.1 mph 7.1 mph 33 % 0 in
19:06 87.3 °F 55.6 °F 30 in WSW 4.6 mph 4.6 mph 34 % 0 in
19:11 87.1 °F 55.2 °F 30 in SSW 4.6 mph 4.6 mph 34 % 0 in
19:15 75.2 °F 55.8 °F 30.1 in SW 3 mph 3 mph 51 % 0 in
19:16 86.9 °F 55.2 °F 30 in SW 8.5 mph 8.5 mph 34 % 0 in
19:21 86.2 °F 54.5 °F 30 in South 5.8 mph 5.8 mph 34 % 0 in
19:25 75.2 °F 56.8 °F 30.1 in SW 1 mph 3 mph 53 % 0 in
19:26 86 °F 54.3 °F 30 in SSE 5.8 mph 5.8 mph 34 % 0 in
19:31 85.5 °F 54.7 °F 30 in SW 4.6 mph 4.6 mph 35 % 0 in
19:35 75 °F 57.2 °F 30.1 in WSW 2 mph 3 mph 54 % 0 in
19:36 85.3 °F 54.5 °F 30 in WSW 4.6 mph 4.6 mph 35 % 0 in
19:41 84.9 °F 55 °F 30 in SE 2.3 mph 2.3 mph 36 % 0 in
19:45 74.8 °F 57.6 °F 30.1 in SW 2 mph 3 mph 55 % 0 in
19:46 85.1 °F 55 °F 30 in WSW 3.5 mph 3.5 mph 36 % 0 in
19:51 84.6 °F 54.7 °F 30 in West 5.8 mph 5.8 mph 36 % 0 in
19:55 74.8 °F 58.1 °F 30.1 in WSW 1 mph 3 mph 56 % 0 in
19:56 84.4 °F 54.5 °F 30 in SW 1.4 mph   36 % 0 in
20:01 84.2 °F 54.3 °F 30 in WSW 2.3 mph 2.3 mph 36 % 0 in
20:05 74.7 °F 57.9 °F 30.1 in WSW 2 mph 3 mph 56 % 0 in
20:06 84.2 °F 55 °F 30 in WSW 4.6 mph 4.6 mph 37 % 0 in
20:11 83.8 °F 55.6 °F 30 in WSW 3.8 mph 3.8 mph 38 % 0 in
20:15 74.5 °F 58.3 °F 30.1 in SW 2 mph 3 mph 57 % 0 in
20:16 83.5 °F 55.2 °F 30 in South 6.9 mph 6.9 mph 38 % 0 in
20:21 83.1 °F 54.9 °F 30 in SW 6.9 mph 6.9 mph 38 % 0 in
20:25 74.3 °F 57.6 °F 30.1 in SW 3 mph 4 mph 56 % 0 in
20:26 82.9 °F 55.4 °F 30 in SW 3.3 mph 3.3 mph 39 % 0 in
20:31 82.8 °F 55.2 °F 30 in SW 3.5 mph 3.5 mph 39 % 0 in
20:35 74.3 °F 57.6 °F 30.1 in SW 3 mph 4 mph 56 % 0 in
20:36 82.4 °F 55 °F 30 in SW 4.6 mph 4.6 mph 39 % 0 in
20:41 82.2 °F 54.9 °F 30 in SW 4.6 mph 4.6 mph 39 % 0 in
20:45 74.3 °F 57.6 °F 30.1 in SW 2 mph 3 mph 56 % 0 in
20:46 81.9 °F 54.5 °F 30 in SW 5.8 mph 5.8 mph 39 % 0 in
20:48 81.9 °F 54.5 °F 30 in SW 4.6 mph 4.6 mph 39 % 0 in
20:53 81.5 °F 54.1 °F 30 in West 5.9 mph 5.9 mph 39 % 0 in
20:55 73.9 °F 57.7 °F 30 in WSW 2 mph 3 mph 57 % 0 in
20:58 81.1 °F 53.8 °F 30 in SW 4.6 mph 4.6 mph 39 % 0 in
21:03 80.8 °F 54.1 °F 30 in SW 3.6 mph 3.6 mph 40 % 0 in
21:05 73.9 °F 57.7 °F 30.1 in WSW 1 mph 2 mph 57 % 0 in
21:08 80.6 °F 54.7 °F 30 in WSW 3.5 mph 3.5 mph 41 % 0 in
21:13 80.4 °F 55.2 °F 30 in SW 4.6 mph 4.6 mph 42 % 0 in
21:15 73.8 °F 58.1 °F 30.1 in WSW 2 mph 3 mph 58 % 0 in
21:18 80.1 °F 54.9 °F 30 in SW 4.6 mph 4.6 mph 42 % 0 in
21:23 80.1 °F 54.9 °F 30 in West 4.6 mph 4.6 mph 42 % 0 in
21:25 73.4 °F 57.7 °F 30 in SW 2 mph 2 mph 58 % 0 in
21:28 79.9 °F 54.7 °F 30 in WSW 3.5 mph 3.5 mph 42 % 0 in
21:33 79.7 °F 54.7 °F 30 in SW 5.8 mph 5.8 mph 42 % 0 in
21:35 73.2 °F 57.9 °F 30.1 in WSW 2 mph 2 mph 59 % 0 in
21:38 79.3 °F 54.3 °F 30 in SW 3.8 mph 3.8 mph 42 % 0 in
21:43 79.2 °F 54.1 °F 30 in SW 4.6 mph 4.6 mph 42 % 0 in
21:45 73.2 °F 57.9 °F 30.1 in WSW 2 mph 3 mph 59 % 0 in
21:48 79 °F 54.7 °F 30 in West 6 mph 6 mph 43 % 0 in
21:53 78.8 °F 54.3 °F 30 in SW 3.8 mph 3.8 mph 43 % 0 in
21:55 73 °F 57.9 °F 30.1 in WSW 2 mph 2 mph 59 % 0 in
21:58 78.6 °F 54.1 °F 30 in WSW 3.5 mph 3.5 mph 43 % 0 in
22:03 78.4 °F 54.1 °F 30 in WSW 4.6 mph 4.6 mph 43 % 0 in
22:05 72.9 °F 58.3 °F 30.1 in SW 2 mph 3 mph 60 % 0 in
22:08 78.3 °F 54 °F 30 in SW 7.1 mph 7.1 mph 43 % 0 in
22:13 78.1 °F 53.8 °F 30 in SW 4.6 mph 4.6 mph 43 % 0 in
22:15 72.7 °F 57.9 °F 30.1 in SW 2 mph 3 mph 60 % 0 in
22:18 78.1 °F 53.8 °F 30 in West 3.8 mph 3.8 mph 43 % 0 in
22:23 78.1 °F 54.3 °F 30 in WSW 4.6 mph 4.6 mph 44 % 0 in
22:25 72.5 °F 58.3 °F 30.1 in SW 1 mph 4 mph 61 % 0 in
22:28 77.9 °F 54.1 °F 30 in South 2.4 mph 2.4 mph 44 % 0 in
22:35 77.7 °F 54.1 °F 30 in West 4.6 mph 4.6 mph 44 % 0 in
22:40 77.5 °F 54 °F 30 in WSW 4.6 mph 4.6 mph 44 % 0 in
22:45 77.4 °F 54.3 °F 30 in SW 5.8 mph 5.8 mph 45 % 0 in
22:50 77.2 °F 54.1 °F 30 in SW 5.8 mph 5.8 mph 45 % 0 in
22:55 77 °F 54 °F 30 in SW 5.8 mph 5.8 mph 45 % 0 in
23:00 77 °F 54.7 °F 30 in WSW 3.5 mph 3.5 mph 46 % 0 in
23:01 77 °F 54.7 °F 30 in WSW 3.6 mph 3.6 mph 46 % 0 in
23:05 72.3 °F 58.6 °F 30 in WSW 2 mph 3 mph 62 % 0 in
23:06 77 °F 54.7 °F 30 in WSW 3.5 mph 3.5 mph 46 % 0 in
23:11 76.8 °F 55 °F 30 in SW 4.6 mph 4.6 mph 47 % 0 in
23:15 72.1 °F 58.5 °F 30 in WSW 1 mph 3 mph 62 % 0 in
23:16 76.6 °F 54.9 °F 30.1 in SW 4.6 mph 4.6 mph 47 % 0 in
23:21 76.5 °F 54.7 °F 30.1 in SW 3.1 mph 3.1 mph 47 % 0 in
23:25 72.3 °F 58.6 °F 30.1 in WSW 2 mph 2 mph 62 % 0 in
23:26 76.3 °F 55 °F 30.1 in SW 2.3 mph 2.3 mph 48 % 0 in
23:31 76.3 °F 55 °F 30.1 in SW 2.3 mph 2.3 mph 48 % 0 in
23:35 72.5 °F 58.3 °F 30.1 in West 2 mph 3 mph 61 % 0 in
23:36 76.1 °F 55 °F 30.1 in West 3.5 mph 3.5 mph 48 % 0 in
23:41 76.1 °F 55 °F 30.1 in WSW 2.3 mph 2.3 mph 48 % 0 in
23:45 72.5 °F 58.3 °F 30.1 in West 3 mph 3 mph 61 % 0 in
23:46 76.1 °F 55.6 °F 30.1 in West 2.3 mph 2.3 mph 49 % 0 in
23:51 75.9 °F 55.4 °F 30.1 in WSW 3.5 mph 3.5 mph 49 % 0 in
23:55 72.3 °F 58.6 °F 30.1 in West 2 mph 3 mph 62 % 0 in
23:56 75.7 °F 55.8 °F 30.1 in SW 2.4 mph 2.4 mph 50 % 0 in
Meteo Sesrovires
Elogis d' Weather Underground - 3.5 mb

Guio original per  Jim McMurry - jmcmurry@mwt.net Adaptat per a la plantilla per  Wim van der Kuil - Leuven-Template.eu

Trobareu la nostra informacio del temps tambe a:

Weather Underground

AWEKAS